sensor_id;sensor_type;location;lat;lon;timestamp;temperature;humidity
20827;DHT22;10574;52.508;13.236;2023-07-31T00:01:27;15.00;99.90
20827;DHT22;10574;52.508;13.236;2023-07-31T00:03:55;14.90;99.90
20827;DHT22;10574;52.508;13.236;2023-07-31T00:06:22;15.00;99.90
20827;DHT22;10574;52.508;13.236;2023-07-31T00:08:50;14.90;99.90
20827;DHT22;10574;52.508;13.236;2023-07-31T00:11:18;14.80;99.90
20827;DHT22;10574;52.508;13.236;2023-07-31T00:13:45;14.90;99.90
20827;DHT22;10574;52.508;13.236;2023-07-31T00:16:13;14.90;99.90
20827;DHT22;10574;52.508;13.236;2023-07-31T00:18:41;14.90;99.90
20827;DHT22;10574;52.508;13.236;2023-07-31T00:21:09;15.00;99.90
20827;DHT22;10574;52.508;13.236;2023-07-31T00:23:36;14.90;99.90
20827;DHT22;10574;52.508;13.236;2023-07-31T00:26:04;14.80;99.90
20827;DHT22;10574;52.508;13.236;2023-07-31T00:28:31;14.90;99.90
20827;DHT22;10574;52.508;13.236;2023-07-31T00:30:59;14.80;99.90
20827;DHT22;10574;52.508;13.236;2023-07-31T00:33:28;14.90;99.90
20827;DHT22;10574;52.508;13.236;2023-07-31T00:35:56;14.90;99.90
20827;DHT22;10574;52.508;13.236;2023-07-31T00:38:23;14.90;99.90
20827;DHT22;10574;52.508;13.236;2023-07-31T00:40:51;14.90;99.90
20827;DHT22;10574;52.508;13.236;2023-07-31T00:43:19;14.90;99.90
20827;DHT22;10574;52.508;13.236;2023-07-31T00:45:46;14.90;99.90
20827;DHT22;10574;52.508;13.236;2023-07-31T00:48:14;14.90;99.90
20827;DHT22;10574;52.508;13.236;2023-07-31T00:50:42;14.90;99.90
20827;DHT22;10574;52.508;13.236;2023-07-31T00:53:10;15.00;99.90
20827;DHT22;10574;52.508;13.236;2023-07-31T00:55:37;14.90;99.90
20827;DHT22;10574;52.508;13.236;2023-07-31T00:58:05;14.90;99.90
20827;DHT22;10574;52.508;13.236;2023-07-31T01:00:33;14.90;99.90
20827;DHT22;10574;52.508;13.236;2023-07-31T01:03:00;15.00;99.90
20827;DHT22;10574;52.508;13.236;2023-07-31T01:06:02;15.00;99.90
20827;DHT22;10574;52.508;13.236;2023-07-31T01:08:54;15.00;99.90
20827;DHT22;10574;52.508;13.236;2023-07-31T01:11:33;15.00;99.90
20827;DHT22;10574;52.508;13.236;2023-07-31T01:14:00;15.00;99.90
20827;DHT22;10574;52.508;13.236;2023-07-31T01:16:28;15.00;99.90
20827;DHT22;10574;52.508;13.236;2023-07-31T01:18:56;15.00;99.90
20827;DHT22;10574;52.508;13.236;2023-07-31T01:24:22;14.90;99.90
20827;DHT22;10574;52.508;13.236;2023-07-31T01:27:01;15.00;99.90
20827;DHT22;10574;52.508;13.236;2023-07-31T01:29:33;15.00;99.90
20827;DHT22;10574;52.508;13.236;2023-07-31T01:32:02;15.10;99.90
20827;DHT22;10574;52.508;13.236;2023-07-31T01:34:30;15.10;99.90
20827;DHT22;10574;52.508;13.236;2023-07-31T01:36:58;15.10;99.90
20827;DHT22;10574;52.508;13.236;2023-07-31T01:39:26;15.00;99.90
20827;DHT22;10574;52.508;13.236;2023-07-31T01:41:54;15.10;99.90
20827;DHT22;10574;52.508;13.236;2023-07-31T01:44:21;15.10;99.90
20827;DHT22;10574;52.508;13.236;2023-07-31T01:46:49;15.20;99.90
20827;DHT22;10574;52.508;13.236;2023-07-31T01:49:17;15.20;99.90
20827;DHT22;10574;52.508;13.236;2023-07-31T01:51:45;15.20;99.90
20827;DHT22;10574;52.508;13.236;2023-07-31T01:54:14;15.20;99.90
20827;DHT22;10574;52.508;13.236;2023-07-31T01:56:42;15.20;99.90
20827;DHT22;10574;52.508;13.236;2023-07-31T01:59:10;15.20;99.90
20827;DHT22;10574;52.508;13.236;2023-07-31T02:01:38;15.20;99.90
20827;DHT22;10574;52.508;13.236;2023-07-31T02:04:05;15.30;99.90
20827;DHT22;10574;52.508;13.236;2023-07-31T02:06:33;15.20;99.90
20827;DHT22;10574;52.508;13.236;2023-07-31T02:09:01;15.20;99.90
20827;DHT22;10574;52.508;13.236;2023-07-31T02:11:30;15.20;99.90
20827;DHT22;10574;52.508;13.236;2023-07-31T02:13:57;15.10;99.90
20827;DHT22;10574;52.508;13.236;2023-07-31T02:16:25;15.20;99.90
20827;DHT22;10574;52.508;13.236;2023-07-31T02:18:53;15.20;99.90
20827;DHT22;10574;52.508;13.236;2023-07-31T02:21:20;15.20;99.90
20827;DHT22;10574;52.508;13.236;2023-07-31T02:23:48;15.20;99.90
20827;DHT22;10574;52.508;13.236;2023-07-31T02:26:16;15.30;99.90
20827;DHT22;10574;52.508;13.236;2023-07-31T02:28:44;15.30;99.90
20827;DHT22;10574;52.508;13.236;2023-07-31T02:31:11;15.30;99.90
20827;DHT22;10574;52.508;13.236;2023-07-31T02:33:39;15.30;99.90
20827;DHT22;10574;52.508;13.236;2023-07-31T02:36:06;15.30;99.90
20827;DHT22;10574;52.508;13.236;2023-07-31T02:38:34;15.30;99.90
20827;DHT22;10574;52.508;13.236;2023-07-31T02:41:02;15.30;99.90
20827;DHT22;10574;52.508;13.236;2023-07-31T02:43:29;15.30;99.90
20827;DHT22;10574;52.508;13.236;2023-07-31T02:45:57;15.30;99.90
20827;DHT22;10574;52.508;13.236;2023-07-31T02:48:25;15.30;99.90
20827;DHT22;10574;52.508;13.236;2023-07-31T02:50:53;15.30;99.90
20827;DHT22;10574;52.508;13.236;2023-07-31T02:53:21;15.40;99.90
20827;DHT22;10574;52.508;13.236;2023-07-31T02:55:49;15.30;99.90
20827;DHT22;10574;52.508;13.236;2023-07-31T02:58:17;15.30;99.90
20827;DHT22;10574;52.508;13.236;2023-07-31T03:00:45;15.30;99.90
20827;DHT22;10574;52.508;13.236;2023-07-31T03:03:13;15.30;99.90
20827;DHT22;10574;52.508;13.236;2023-07-31T03:05:40;15.30;99.90
20827;DHT22;10574;52.508;13.236;2023-07-31T03:08:08;15.30;99.90
20827;DHT22;10574;52.508;13.236;2023-07-31T03:10:36;15.30;99.90
20827;DHT22;10574;52.508;13.236;2023-07-31T03:13:03;15.30;99.90
20827;DHT22;10574;52.508;13.236;2023-07-31T03:15:31;15.30;99.90
20827;DHT22;10574;52.508;13.236;2023-07-31T03:17:58;15.30;99.90
20827;DHT22;10574;52.508;13.236;2023-07-31T03:20:26;15.30;99.90
20827;DHT22;10574;52.508;13.236;2023-07-31T03:22:54;15.30;99.90
20827;DHT22;10574;52.508;13.236;2023-07-31T03:25:21;15.30;99.90
20827;DHT22;10574;52.508;13.236;2023-07-31T03:27:49;15.20;99.90
20827;DHT22;10574;52.508;13.236;2023-07-31T03:30:16;15.20;99.90
20827;DHT22;10574;52.508;13.236;2023-07-31T03:32:44;15.20;99.90
20827;DHT22;10574;52.508;13.236;2023-07-31T03:35:11;15.20;99.90
20827;DHT22;10574;52.508;13.236;2023-07-31T03:37:39;15.20;99.90
20827;DHT22;10574;52.508;13.236;2023-07-31T03:40:07;15.20;99.90
20827;DHT22;10574;52.508;13.236;2023-07-31T03:42:35;15.20;99.90
20827;DHT22;10574;52.508;13.236;2023-07-31T03:45:03;15.20;99.90
20827;DHT22;10574;52.508;13.236;2023-07-31T03:47:32;15.20;99.90
20827;DHT22;10574;52.508;13.236;2023-07-31T03:50:00;15.10;99.90
20827;DHT22;10574;52.508;13.236;2023-07-31T03:52:28;15.20;99.90
20827;DHT22;10574;52.508;13.236;2023-07-31T03:54:55;15.20;99.90
20827;DHT22;10574;52.508;13.236;2023-07-31T03:57:23;15.10;99.90
20827;DHT22;10574;52.508;13.236;2023-07-31T03:59:50;15.10;99.90
20827;DHT22;10574;52.508;13.236;2023-07-31T04:02:19;15.10;99.90
20827;DHT22;10574;52.508;13.236;2023-07-31T04:04:47;15.10;99.90
20827;DHT22;10574;52.508;13.236;2023-07-31T04:07:14;15.20;99.90
20827;DHT22;10574;52.508;13.236;2023-07-31T04:09:42;15.20;99.90
20827;DHT22;10574;52.508;13.236;2023-07-31T04:12:10;15.20;99.90
20827;DHT22;10574;52.508;13.236;2023-07-31T04:14:37;15.20;99.90
20827;DHT22;10574;52.508;13.236;2023-07-31T04:17:05;15.20;99.90
20827;DHT22;10574;52.508;13.236;2023-07-31T04:19:32;15.20;99.90
20827;DHT22;10574;52.508;13.236;2023-07-31T04:22:00;15.20;99.90
20827;DHT22;10574;52.508;13.236;2023-07-31T04:24:28;15.20;99.90
20827;DHT22;10574;52.508;13.236;2023-07-31T04:26:56;15.20;99.90
20827;DHT22;10574;52.508;13.236;2023-07-31T04:29:23;15.20;99.90
20827;DHT22;10574;52.508;13.236;2023-07-31T04:31:51;15.20;99.90
20827;DHT22;10574;52.508;13.236;2023-07-31T04:34:19;15.20;99.90
20827;DHT22;10574;52.508;13.236;2023-07-31T04:36:46;15.10;99.90
20827;DHT22;10574;52.508;13.236;2023-07-31T04:39:14;15.10;99.90
20827;DHT22;10574;52.508;13.236;2023-07-31T04:41:42;15.20;99.90
20827;DHT22;10574;52.508;13.236;2023-07-31T04:44:09;15.20;99.90
20827;DHT22;10574;52.508;13.236;2023-07-31T04:46:37;15.30;99.90
20827;DHT22;10574;52.508;13.236;2023-07-31T04:49:05;15.30;99.90
20827;DHT22;10574;52.508;13.236;2023-07-31T04:51:33;15.30;99.90
20827;DHT22;10574;52.508;13.236;2023-07-31T04:54:01;15.30;99.90
20827;DHT22;10574;52.508;13.236;2023-07-31T04:56:28;15.30;99.90
20827;DHT22;10574;52.508;13.236;2023-07-31T04:58:56;15.30;99.90
20827;DHT22;10574;52.508;13.236;2023-07-31T05:01:24;15.30;99.90
20827;DHT22;10574;52.508;13.236;2023-07-31T05:03:52;15.40;99.90
20827;DHT22;10574;52.508;13.236;2023-07-31T05:06:19;15.40;99.90
20827;DHT22;10574;52.508;13.236;2023-07-31T05:08:47;15.40;99.90
20827;DHT22;10574;52.508;13.236;2023-07-31T05:11:15;15.40;99.90
20827;DHT22;10574;52.508;13.236;2023-07-31T05:13:42;15.50;99.90
20827;DHT22;10574;52.508;13.236;2023-07-31T05:16:10;15.40;99.90
20827;DHT22;10574;52.508;13.236;2023-07-31T05:18:37;15.50;99.90
20827;DHT22;10574;52.508;13.236;2023-07-31T05:21:05;15.50;99.90
20827;DHT22;10574;52.508;13.236;2023-07-31T05:23:33;15.50;99.90
20827;DHT22;10574;52.508;13.236;2023-07-31T05:26:05;15.60;99.90
20827;DHT22;10574;52.508;13.236;2023-07-31T05:28:35;15.60;99.90
20827;DHT22;10574;52.508;13.236;2023-07-31T05:31:04;15.70;99.90
20827;DHT22;10574;52.508;13.236;2023-07-31T05:33:32;15.70;99.90
20827;DHT22;10574;52.508;13.236;2023-07-31T05:35:59;15.70;99.90
20827;DHT22;10574;52.508;13.236;2023-07-31T05:38:27;15.80;99.90
20827;DHT22;10574;52.508;13.236;2023-07-31T05:40:55;15.80;99.90
20827;DHT22;10574;52.508;13.236;2023-07-31T05:43:22;15.80;99.90
20827;DHT22;10574;52.508;13.236;2023-07-31T05:45:51;15.80;99.90
20827;DHT22;10574;52.508;13.236;2023-07-31T05:48:19;15.80;99.90
20827;DHT22;10574;52.508;13.236;2023-07-31T05:50:47;15.80;99.90
20827;DHT22;10574;52.508;13.236;2023-07-31T05:53:14;15.80;99.90
20827;DHT22;10574;52.508;13.236;2023-07-31T05:55:42;15.80;99.90
20827;DHT22;10574;52.508;13.236;2023-07-31T05:58:10;15.80;99.90
20827;DHT22;10574;52.508;13.236;2023-07-31T06:00:37;15.80;99.90
20827;DHT22;10574;52.508;13.236;2023-07-31T06:03:05;15.80;99.90
20827;DHT22;10574;52.508;13.236;2023-07-31T06:05:33;15.80;99.90
20827;DHT22;10574;52.508;13.236;2023-07-31T06:08:01;15.80;99.90
20827;DHT22;10574;52.508;13.236;2023-07-31T06:10:29;15.90;99.90
20827;DHT22;10574;52.508;13.236;2023-07-31T06:12:56;16.00;99.90
20827;DHT22;10574;52.508;13.236;2023-07-31T06:15:24;16.00;99.90
20827;DHT22;10574;52.508;13.236;2023-07-31T06:17:52;16.00;99.90
20827;DHT22;10574;52.508;13.236;2023-07-31T06:20:19;15.90;99.90
20827;DHT22;10574;52.508;13.236;2023-07-31T06:22:47;16.00;99.90
20827;DHT22;10574;52.508;13.236;2023-07-31T06:25:14;16.00;99.90
20827;DHT22;10574;52.508;13.236;2023-07-31T06:27:42;16.10;99.90
20827;DHT22;10574;52.508;13.236;2023-07-31T06:30:10;16.00;99.90
20827;DHT22;10574;52.508;13.236;2023-07-31T06:32:38;16.10;99.90
20827;DHT22;10574;52.508;13.236;2023-07-31T06:35:07;16.20;99.90
20827;DHT22;10574;52.508;13.236;2023-07-31T06:37:35;16.20;99.90
20827;DHT22;10574;52.508;13.236;2023-07-31T06:40:03;16.30;99.90
20827;DHT22;10574;52.508;13.236;2023-07-31T06:42:32;16.40;99.90
20827;DHT22;10574;52.508;13.236;2023-07-31T06:44:59;16.40;99.90
20827;DHT22;10574;52.508;13.236;2023-07-31T06:47:27;16.30;99.90
20827;DHT22;10574;52.508;13.236;2023-07-31T06:49:56;16.40;99.90
20827;DHT22;10574;52.508;13.236;2023-07-31T06:52:23;16.50;99.90
20827;DHT22;10574;52.508;13.236;2023-07-31T06:55:16;16.60;99.90
20827;DHT22;10574;52.508;13.236;2023-07-31T06:57:33;16.60;99.90
20827;DHT22;10574;52.508;13.236;2023-07-31T07:00:01;16.70;99.90
20827;DHT22;10574;52.508;13.236;2023-07-31T07:02:30;16.70;99.90
20827;DHT22;10574;52.508;13.236;2023-07-31T07:04:58;16.70;99.90
20827;DHT22;10574;52.508;13.236;2023-07-31T07:07:26;16.60;99.90
20827;DHT22;10574;52.508;13.236;2023-07-31T07:09:53;16.50;99.90
20827;DHT22;10574;52.508;13.236;2023-07-31T07:12:21;16.50;99.90
20827;DHT22;10574;52.508;13.236;2023-07-31T07:14:49;16.50;99.90
20827;DHT22;10574;52.508;13.236;2023-07-31T07:17:16;16.50;99.90
20827;DHT22;10574;52.508;13.236;2023-07-31T07:19:44;16.40;99.90
20827;DHT22;10574;52.508;13.236;2023-07-31T07:22:15;16.40;99.90
20827;DHT22;10574;52.508;13.236;2023-07-31T07:24:43;16.40;99.90
20827;DHT22;10574;52.508;13.236;2023-07-31T07:27:11;16.40;99.90
20827;DHT22;10574;52.508;13.236;2023-07-31T07:29:39;16.40;99.90
20827;DHT22;10574;52.508;13.236;2023-07-31T07:32:07;16.40;99.90
20827;DHT22;10574;52.508;13.236;2023-07-31T07:34:35;16.50;99.90
20827;DHT22;10574;52.508;13.236;2023-07-31T07:37:03;16.50;99.90
20827;DHT22;10574;52.508;13.236;2023-07-31T07:39:31;16.40;99.90
20827;DHT22;10574;52.508;13.236;2023-07-31T07:41:59;16.40;99.90
20827;DHT22;10574;52.508;13.236;2023-07-31T07:44:26;16.50;99.90
20827;DHT22;10574;52.508;13.236;2023-07-31T07:46:54;16.40;99.90
20827;DHT22;10574;52.508;13.236;2023-07-31T07:49:22;16.40;99.90
20827;DHT22;10574;52.508;13.236;2023-07-31T07:51:50;16.40;99.90
20827;DHT22;10574;52.508;13.236;2023-07-31T07:54:17;16.50;99.90
20827;DHT22;10574;52.508;13.236;2023-07-31T07:56:46;16.40;99.90
20827;DHT22;10574;52.508;13.236;2023-07-31T07:59:14;16.40;99.90
20827;DHT22;10574;52.508;13.236;2023-07-31T08:01:42;16.40;99.90
20827;DHT22;10574;52.508;13.236;2023-07-31T08:04:10;16.40;99.90
20827;DHT22;10574;52.508;13.236;2023-07-31T08:06:37;16.40;99.90
20827;DHT22;10574;52.508;13.236;2023-07-31T08:09:05;16.40;99.90
20827;DHT22;10574;52.508;13.236;2023-07-31T08:11:33;16.40;99.90
20827;DHT22;10574;52.508;13.236;2023-07-31T08:14:00;16.40;99.90
20827;DHT22;10574;52.508;13.236;2023-07-31T08:16:28;16.40;99.90
20827;DHT22;10574;52.508;13.236;2023-07-31T08:18:57;16.40;99.90
20827;DHT22;10574;52.508;13.236;2023-07-31T08:21:25;16.40;99.90
20827;DHT22;10574;52.508;13.236;2023-07-31T08:23:53;16.50;99.90
20827;DHT22;10574;52.508;13.236;2023-07-31T08:26:20;16.60;99.90
20827;DHT22;10574;52.508;13.236;2023-07-31T08:28:48;16.60;99.90
20827;DHT22;10574;52.508;13.236;2023-07-31T08:31:16;16.60;99.90
20827;DHT22;10574;52.508;13.236;2023-07-31T08:33:44;16.70;99.90
20827;DHT22;10574;52.508;13.236;2023-07-31T08:36:12;16.60;99.90
20827;DHT22;10574;52.508;13.236;2023-07-31T08:38:40;16.70;99.90
20827;DHT22;10574;52.508;13.236;2023-07-31T08:41:08;16.70;99.90
20827;DHT22;10574;52.508;13.236;2023-07-31T08:43:36;16.80;99.90
20827;DHT22;10574;52.508;13.236;2023-07-31T08:46:05;17.00;99.90
20827;DHT22;10574;52.508;13.236;2023-07-31T08:48:34;17.00;99.90
20827;DHT22;10574;52.508;13.236;2023-07-31T08:51:03;17.20;99.90
20827;DHT22;10574;52.508;13.236;2023-07-31T08:53:30;17.40;99.90
20827;DHT22;10574;52.508;13.236;2023-07-31T08:55:59;17.30;99.90
20827;DHT22;10574;52.508;13.236;2023-07-31T08:58:30;17.30;99.90
20827;DHT22;10574;52.508;13.236;2023-07-31T09:00:59;17.40;99.90
20827;DHT22;10574;52.508;13.236;2023-07-31T09:03:27;17.40;99.90
20827;DHT22;10574;52.508;13.236;2023-07-31T09:05:57;17.40;99.90
20827;DHT22;10574;52.508;13.236;2023-07-31T09:08:27;17.50;99.90
20827;DHT22;10574;52.508;13.236;2023-07-31T09:11:00;17.60;99.90
20827;DHT22;10574;52.508;13.236;2023-07-31T09:13:32;17.60;99.90
20827;DHT22;10574;52.508;13.236;2023-07-31T09:16:00;17.50;99.90
20827;DHT22;10574;52.508;13.236;2023-07-31T09:18:27;17.40;99.90
20827;DHT22;10574;52.508;13.236;2023-07-31T09:21:05;17.30;99.90
20827;DHT22;10574;52.508;13.236;2023-07-31T09:23:44;17.10;99.90
20827;DHT22;10574;52.508;13.236;2023-07-31T09:26:36;17.10;99.90
20827;DHT22;10574;52.508;13.236;2023-07-31T09:29:03;16.90;99.90
20827;DHT22;10574;52.508;13.236;2023-07-31T09:31:41;16.90;99.90
20827;DHT22;10574;52.508;13.236;2023-07-31T09:34:09;16.80;99.90
20827;DHT22;10574;52.508;13.236;2023-07-31T09:36:44;16.80;99.90
20827;DHT22;10574;52.508;13.236;2023-07-31T09:39:13;16.70;99.90
20827;DHT22;10574;52.508;13.236;2023-07-31T09:41:48;16.80;99.90
20827;DHT22;10574;52.508;13.236;2023-07-31T09:44:16;16.90;99.90
20827;DHT22;10574;52.508;13.236;2023-07-31T09:46:43;17.00;99.90
20827;DHT22;10574;52.508;13.236;2023-07-31T09:49:13;17.10;99.90
20827;DHT22;10574;52.508;13.236;2023-07-31T09:51:42;17.00;99.90
20827;DHT22;10574;52.508;13.236;2023-07-31T09:54:15;17.10;99.90
20827;DHT22;10574;52.508;13.236;2023-07-31T09:56:47;17.10;99.90
20827;DHT22;10574;52.508;13.236;2023-07-31T09:59:19;17.10;99.90
20827;DHT22;10574;52.508;13.236;2023-07-31T10:01:47;17.20;99.90
20827;DHT22;10574;52.508;13.236;2023-07-31T10:04:17;17.20;99.90
20827;DHT22;10574;52.508;13.236;2023-07-31T10:06:48;17.30;99.90
20827;DHT22;10574;52.508;13.236;2023-07-31T10:09:18;17.40;99.90
20827;DHT22;10574;52.508;13.236;2023-07-31T10:11:50;17.50;99.90
20827;DHT22;10574;52.508;13.236;2023-07-31T10:14:19;17.50;99.90
20827;DHT22;10574;52.508;13.236;2023-07-31T10:16:47;17.50;99.90
20827;DHT22;10574;52.508;13.236;2023-07-31T10:19:16;17.50;99.90
20827;DHT22;10574;52.508;13.236;2023-07-31T10:21:44;17.40;99.90
20827;DHT22;10574;52.508;13.236;2023-07-31T10:24:12;17.50;99.90
20827;DHT22;10574;52.508;13.236;2023-07-31T10:26:41;17.50;99.90
20827;DHT22;10574;52.508;13.236;2023-07-31T10:29:10;17.60;99.90
20827;DHT22;10574;52.508;13.236;2023-07-31T10:31:39;17.80;99.90
20827;DHT22;10574;52.508;13.236;2023-07-31T10:34:07;17.90;99.90
20827;DHT22;10574;52.508;13.236;2023-07-31T10:36:35;18.00;99.90
20827;DHT22;10574;52.508;13.236;2023-07-31T10:39:04;18.00;99.90
20827;DHT22;10574;52.508;13.236;2023-07-31T10:41:33;18.20;99.90
20827;DHT22;10574;52.508;13.236;2023-07-31T10:44:03;18.50;99.90
20827;DHT22;10574;52.508;13.236;2023-07-31T10:46:33;18.60;99.90
20827;DHT22;10574;52.508;13.236;2023-07-31T10:49:02;18.80;99.90
20827;DHT22;10574;52.508;13.236;2023-07-31T10:51:36;18.90;99.90
20827;DHT22;10574;52.508;13.236;2023-07-31T10:54:12;18.90;99.90
20827;DHT22;10574;52.508;13.236;2023-07-31T10:56:45;18.90;99.90
20827;DHT22;10574;52.508;13.236;2023-07-31T10:59:14;18.90;99.90
20827;DHT22;10574;52.508;13.236;2023-07-31T11:01:54;19.10;99.90
20827;DHT22;10574;52.508;13.236;2023-07-31T11:04:27;19.20;99.90
20827;DHT22;10574;52.508;13.236;2023-07-31T11:07:02;19.20;99.90
20827;DHT22;10574;52.508;13.236;2023-07-31T11:09:31;19.30;99.90
20827;DHT22;10574;52.508;13.236;2023-07-31T11:12:00;19.20;99.90
20827;DHT22;10574;52.508;13.236;2023-07-31T11:14:28;19.20;99.90
20827;DHT22;10574;52.508;13.236;2023-07-31T11:16:55;19.20;99.90
20827;DHT22;10574;52.508;13.236;2023-07-31T11:19:24;19.30;99.90
20827;DHT22;10574;52.508;13.236;2023-07-31T11:21:53;19.40;99.90
20827;DHT22;10574;52.508;13.236;2023-07-31T11:24:21;19.40;99.90
20827;DHT22;10574;52.508;13.236;2023-07-31T11:26:51;19.40;99.90
20827;DHT22;10574;52.508;13.236;2023-07-31T11:29:20;19.40;99.90
20827;DHT22;10574;52.508;13.236;2023-07-31T11:31:48;19.50;99.90
20827;DHT22;10574;52.508;13.236;2023-07-31T11:34:16;19.50;99.90
20827;DHT22;10574;52.508;13.236;2023-07-31T11:36:54;19.50;99.90
20827;DHT22;10574;52.508;13.236;2023-07-31T11:39:22;19.50;99.90
20827;DHT22;10574;52.508;13.236;2023-07-31T11:41:50;19.50;99.90
20827;DHT22;10574;52.508;13.236;2023-07-31T11:44:18;19.50;99.90
20827;DHT22;10574;52.508;13.236;2023-07-31T11:46:45;19.50;99.90
20827;DHT22;10574;52.508;13.236;2023-07-31T11:49:13;19.50;99.90
20827;DHT22;10574;52.508;13.236;2023-07-31T11:51:41;19.50;99.90
20827;DHT22;10574;52.508;13.236;2023-07-31T11:54:08;19.60;99.90
20827;DHT22;10574;52.508;13.236;2023-07-31T11:56:38;19.60;99.90
20827;DHT22;10574;52.508;13.236;2023-07-31T11:59:06;19.60;99.90
20827;DHT22;10574;52.508;13.236;2023-07-31T12:01:34;19.50;99.90
20827;DHT22;10574;52.508;13.236;2023-07-31T12:04:03;19.50;99.90
20827;DHT22;10574;52.508;13.236;2023-07-31T12:06:37;19.50;99.90
20827;DHT22;10574;52.508;13.236;2023-07-31T12:09:09;19.60;99.90
20827;DHT22;10574;52.508;13.236;2023-07-31T12:11:45;19.70;99.90
20827;DHT22;10574;52.508;13.236;2023-07-31T12:14:30;19.70;99.90
20827;DHT22;10574;52.508;13.236;2023-07-31T12:17:04;19.80;99.90
20827;DHT22;10574;52.508;13.236;2023-07-31T12:19:33;19.90;99.90
20827;DHT22;10574;52.508;13.236;2023-07-31T12:22:01;19.90;99.90
20827;DHT22;10574;52.508;13.236;2023-07-31T12:24:29;20.00;99.90
20827;DHT22;10574;52.508;13.236;2023-07-31T12:26:57;20.00;99.90
20827;DHT22;10574;52.508;13.236;2023-07-31T12:29:33;20.10;99.90
20827;DHT22;10574;52.508;13.236;2023-07-31T12:31:55;20.20;99.90
20827;DHT22;10574;52.508;13.236;2023-07-31T12:34:23;20.20;99.90
20827;DHT22;10574;52.508;13.236;2023-07-31T12:36:53;20.20;99.90
20827;DHT22;10574;52.508;13.236;2023-07-31T12:39:20;20.10;99.90
20827;DHT22;10574;52.508;13.236;2023-07-31T12:41:48;20.10;99.90
20827;DHT22;10574;52.508;13.236;2023-07-31T12:44:16;20.10;99.90
20827;DHT22;10574;52.508;13.236;2023-07-31T12:46:44;20.10;99.90
20827;DHT22;10574;52.508;13.236;2023-07-31T12:49:11;20.00;99.90
20827;DHT22;10574;52.508;13.236;2023-07-31T12:51:39;20.00;99.90
20827;DHT22;10574;52.508;13.236;2023-07-31T12:54:07;20.00;99.90
20827;DHT22;10574;52.508;13.236;2023-07-31T12:56:35;20.00;99.90
20827;DHT22;10574;52.508;13.236;2023-07-31T12:59:02;20.10;99.90
20827;DHT22;10574;52.508;13.236;2023-07-31T13:01:30;19.90;99.90
20827;DHT22;10574;52.508;13.236;2023-07-31T13:03:58;19.70;99.90
20827;DHT22;10574;52.508;13.236;2023-07-31T13:06:26;19.60;99.90
20827;DHT22;10574;52.508;13.236;2023-07-31T13:08:53;19.60;99.90
20827;DHT22;10574;52.508;13.236;2023-07-31T13:11:21;19.70;99.90
20827;DHT22;10574;52.508;13.236;2023-07-31T13:13:49;19.80;99.90
20827;DHT22;10574;52.508;13.236;2023-07-31T13:16:17;19.90;99.90
20827;DHT22;10574;52.508;13.236;2023-07-31T13:18:45;20.00;99.90
20827;DHT22;10574;52.508;13.236;2023-07-31T13:21:12;20.10;99.90
20827;DHT22;10574;52.508;13.236;2023-07-31T13:23:40;20.20;99.90
20827;DHT22;10574;52.508;13.236;2023-07-31T13:26:27;20.20;99.90
20827;DHT22;10574;52.508;13.236;2023-07-31T13:28:55;20.20;99.90
20827;DHT22;10574;52.508;13.236;2023-07-31T13:31:22;20.30;99.90
20827;DHT22;10574;52.508;13.236;2023-07-31T13:33:50;20.40;99.90
20827;DHT22;10574;52.508;13.236;2023-07-31T13:36:18;20.50;99.90
20827;DHT22;10574;52.508;13.236;2023-07-31T13:38:46;20.50;99.90
20827;DHT22;10574;52.508;13.236;2023-07-31T13:41:13;20.60;99.90
20827;DHT22;10574;52.508;13.236;2023-07-31T13:43:41;20.70;99.90
20827;DHT22;10574;52.508;13.236;2023-07-31T13:46:09;20.70;99.90
20827;DHT22;10574;52.508;13.236;2023-07-31T13:48:37;20.80;99.90
20827;DHT22;10574;52.508;13.236;2023-07-31T13:51:05;20.80;99.90
20827;DHT22;10574;52.508;13.236;2023-07-31T13:53:33;20.80;99.90
20827;DHT22;10574;52.508;13.236;2023-07-31T13:56:00;20.70;99.90
20827;DHT22;10574;52.508;13.236;2023-07-31T13:58:28;20.70;99.90
20827;DHT22;10574;52.508;13.236;2023-07-31T14:00:56;20.60;99.90
20827;DHT22;10574;52.508;13.236;2023-07-31T14:03:23;20.60;99.90
20827;DHT22;10574;52.508;13.236;2023-07-31T14:05:52;20.60;99.90
20827;DHT22;10574;52.508;13.236;2023-07-31T14:08:22;20.60;99.90
20827;DHT22;10574;52.508;13.236;2023-07-31T14:10:49;20.60;99.90
20827;DHT22;10574;52.508;13.236;2023-07-31T14:13:17;20.60;99.90
20827;DHT22;10574;52.508;13.236;2023-07-31T14:15:45;20.60;99.90
20827;DHT22;10574;52.508;13.236;2023-07-31T14:18:12;20.70;99.90
20827;DHT22;10574;52.508;13.236;2023-07-31T14:20:40;20.70;99.90
20827;DHT22;10574;52.508;13.236;2023-07-31T14:23:08;20.70;99.90
20827;DHT22;10574;52.508;13.236;2023-07-31T14:25:35;20.80;99.90
20827;DHT22;10574;52.508;13.236;2023-07-31T14:28:03;20.80;99.90
20827;DHT22;10574;52.508;13.236;2023-07-31T14:30:31;20.80;99.90
20827;DHT22;10574;52.508;13.236;2023-07-31T14:32:58;20.80;99.90
20827;DHT22;10574;52.508;13.236;2023-07-31T14:35:27;20.80;99.90
20827;DHT22;10574;52.508;13.236;2023-07-31T14:37:55;20.80;99.90
20827;DHT22;10574;52.508;13.236;2023-07-31T14:40:22;20.90;99.90
20827;DHT22;10574;52.508;13.236;2023-07-31T14:42:50;20.80;99.90
20827;DHT22;10574;52.508;13.236;2023-07-31T14:45:18;20.70;99.90
20827;DHT22;10574;52.508;13.236;2023-07-31T14:47:46;20.70;99.90
20827;DHT22;10574;52.508;13.236;2023-07-31T14:50:13;20.70;99.90
20827;DHT22;10574;52.508;13.236;2023-07-31T14:52:41;20.60;99.90
20827;DHT22;10574;52.508;13.236;2023-07-31T14:55:08;20.60;99.90
20827;DHT22;10574;52.508;13.236;2023-07-31T14:57:36;20.60;99.90
20827;DHT22;10574;52.508;13.236;2023-07-31T15:00:05;20.60;99.90
20827;DHT22;10574;52.508;13.236;2023-07-31T15:02:36;20.60;99.90
20827;DHT22;10574;52.508;13.236;2023-07-31T15:05:04;20.60;99.90
20827;DHT22;10574;52.508;13.236;2023-07-31T15:07:33;20.60;99.90
20827;DHT22;10574;52.508;13.236;2023-07-31T15:10:02;20.60;99.90
20827;DHT22;10574;52.508;13.236;2023-07-31T15:12:29;20.60;99.90
20827;DHT22;10574;52.508;13.236;2023-07-31T15:14:57;20.60;99.90
20827;DHT22;10574;52.508;13.236;2023-07-31T15:17:25;20.60;99.90
20827;DHT22;10574;52.508;13.236;2023-07-31T15:19:53;20.70;99.90
20827;DHT22;10574;52.508;13.236;2023-07-31T15:22:20;20.80;99.90
20827;DHT22;10574;52.508;13.236;2023-07-31T15:24:48;20.80;99.90
20827;DHT22;10574;52.508;13.236;2023-07-31T15:27:16;20.70;99.90